createdAt,value
2023-01-19T00:00:31.110Z,75.70
2023-01-19T00:02:58.044Z,75.60
2023-01-19T00:05:24.932Z,75.50
2023-01-19T00:07:51.663Z,75.50
2023-01-19T00:10:18.627Z,75.50
2023-01-19T00:12:45.353Z,75.50
2023-01-19T00:15:12.100Z,75.40
2023-01-19T00:17:41.008Z,75.70
2023-01-19T00:20:09.387Z,75.80
2023-01-19T00:22:39.491Z,76.00
2023-01-19T00:25:06.602Z,76.10
2023-01-19T00:27:35.059Z,75.90
2023-01-19T00:30:02.338Z,76.10
2023-01-19T00:32:29.165Z,76.10
2023-01-19T00:34:56.086Z,76.00
2023-01-19T00:37:23.277Z,76.00
2023-01-19T00:39:50.151Z,76.00
2023-01-19T00:42:35.454Z,76.00
2023-01-19T00:45:02.202Z,76.00
2023-01-19T00:47:29.012Z,76.10
2023-01-19T00:49:55.913Z,76.10
2023-01-19T00:52:22.621Z,76.10
2023-01-19T00:54:49.440Z,76.10
2023-01-19T00:57:16.922Z,76.20
2023-01-19T00:59:43.664Z,76.30
2023-01-19T01:02:11.615Z,76.30
2023-01-19T01:04:38.974Z,76.40
2023-01-19T01:07:06.174Z,76.40
2023-01-19T01:09:32.975Z,76.40
2023-01-19T01:11:59.932Z,76.30
2023-01-19T01:14:26.758Z,75.80
2023-01-19T01:16:53.775Z,75.60
2023-01-19T01:19:21.423Z,75.60
2023-01-19T01:21:48.254Z,75.50
2023-01-19T01:24:15.088Z,75.50
2023-01-19T01:26:41.837Z,75.30
2023-01-19T01:29:08.810Z,75.20
2023-01-19T01:31:35.708Z,75.20
2023-01-19T01:34:02.649Z,75.20
2023-01-19T01:36:32.101Z,75.50
2023-01-19T01:38:59.400Z,75.60
2023-01-19T01:41:27.463Z,75.80
2023-01-19T01:44:01.762Z,76.00
2023-01-19T01:46:30.968Z,76.20
2023-01-19T01:49:07.783Z,76.40
2023-01-19T01:51:36.907Z,76.50
2023-01-19T01:54:24.018Z,76.60
2023-01-19T01:56:53.587Z,76.80
2023-01-19T01:59:39.208Z,77.00
2023-01-19T02:02:29.634Z,77.00
2023-01-19T02:05:04.163Z,77.30
2023-01-19T02:08:03.444Z,77.50
2023-01-19T02:10:49.942Z,77.60
2023-01-19T02:13:23.039Z,77.70
2023-01-19T02:15:56.468Z,77.70
2023-01-19T02:18:26.560Z,77.70
2023-01-19T02:21:18.800Z,77.70
2023-01-19T02:23:52.456Z,77.60
2023-01-19T02:26:29.544Z,77.50
2023-01-19T02:28:59.754Z,77.00
2023-01-19T02:31:28.511Z,76.60
2023-01-19T02:33:56.029Z,76.00
2023-01-19T02:36:30.753Z,75.40
2023-01-19T02:39:00.151Z,75.20
2023-01-19T02:41:30.977Z,75.20
2023-01-19T02:43:58.969Z,76.10
2023-01-19T02:46:26.185Z,75.10
2023-01-19T02:48:52.967Z,75.20
2023-01-19T02:51:25.017Z,75.20
2023-01-19T02:54:12.306Z,75.30
2023-01-19T02:56:57.631Z,75.40
2023-01-19T02:59:52.238Z,75.40
2023-01-19T03:02:36.988Z,75.20
2023-01-19T03:05:25.977Z,74.80
2023-01-19T03:08:14.449Z,74.40
2023-01-19T03:10:57.911Z,74.20
2023-01-19T03:13:39.553Z,73.90
2023-01-19T03:16:14.107Z,73.40
2023-01-19T03:18:45.672Z,73.30
2023-01-19T03:21:13.992Z,73.50
2023-01-19T03:23:44.055Z,73.60
2023-01-19T03:26:14.782Z,73.80
2023-01-19T03:28:44.068Z,74.00
2023-01-19T03:31:22.476Z,74.10
2023-01-19T03:33:53.467Z,74.20
2023-01-19T03:36:42.036Z,74.20
2023-01-19T03:39:10.771Z,74.20
2023-01-19T03:41:40.411Z,74.10
2023-01-19T03:44:08.771Z,74.20
2023-01-19T03:46:35.701Z,74.20
2023-01-19T03:49:02.480Z,74.00
2023-01-19T03:51:29.653Z,73.90
2023-01-19T03:53:56.446Z,73.90
2023-01-19T03:56:25.405Z,73.90
2023-01-19T03:58:52.647Z,73.90
2023-01-19T04:01:22.900Z,73.90
2023-01-19T04:03:50.623Z,74.10
2023-01-19T04:06:18.260Z,74.20
2023-01-19T04:08:45.191Z,74.50
2023-01-19T04:11:12.299Z,74.70
2023-01-19T04:13:39.292Z,74.70
2023-01-19T04:16:07.477Z,74.80
2023-01-19T04:18:35.843Z,74.80
2023-01-19T04:21:04.321Z,74.80
2023-01-19T04:23:31.240Z,75.00
2023-01-19T04:26:03.859Z,75.10
2023-01-19T04:28:31.797Z,75.10
2023-01-19T04:30:58.728Z,75.10
2023-01-19T04:33:26.547Z,75.10
2023-01-19T04:35:54.607Z,75.20
2023-01-19T04:38:22.895Z,75.30
2023-01-19T04:40:50.872Z,75.20
2023-01-19T04:43:17.622Z,75.10
2023-01-19T04:45:45.374Z,75.00
2023-01-19T04:48:12.926Z,75.70
2023-01-19T04:50:40.195Z,74.70
2023-01-19T04:53:06.946Z,74.50
2023-01-19T04:55:33.983Z,74.40
2023-01-19T04:58:00.942Z,74.20
2023-01-19T05:00:27.904Z,74.30
2023-01-19T05:02:54.837Z,75.20
2023-01-19T05:05:21.999Z,74.50
2023-01-19T05:07:48.791Z,74.50
2023-01-19T05:10:16.042Z,74.70
2023-01-19T05:12:42.809Z,74.70
2023-01-19T05:15:10.446Z,74.70
2023-01-19T05:17:37.870Z,74.80
2023-01-19T05:20:05.457Z,74.70
2023-01-19T05:22:32.803Z,74.80
2023-01-19T05:25:01.588Z,74.90
2023-01-19T05:27:28.403Z,75.00
2023-01-19T05:29:55.191Z,75.00
2023-01-19T05:32:21.973Z,75.10
2023-01-19T05:34:48.712Z,75.10
2023-01-19T05:37:15.449Z,75.10
2023-01-19T05:39:42.245Z,74.90
2023-01-19T05:42:08.973Z,74.60
2023-01-19T05:44:35.728Z,74.20
2023-01-19T05:47:02.501Z,74.00
2023-01-19T05:49:29.282Z,73.90
2023-01-19T05:51:56.012Z,73.70
2023-01-19T05:54:22.923Z,73.40
2023-01-19T05:56:49.707Z,73.20
2023-01-19T05:59:21.474Z,72.90
2023-01-19T06:01:48.248Z,72.70
2023-01-19T06:04:14.975Z,72.50
2023-01-19T06:06:41.758Z,72.40
2023-01-19T06:09:08.639Z,72.40
2023-01-19T06:11:35.532Z,72.70
2023-01-19T06:14:02.306Z,73.00
2023-01-19T06:16:29.055Z,73.10
2023-01-19T06:18:55.911Z,73.10
2023-01-19T06:21:22.598Z,73.20
2023-01-19T06:23:49.380Z,73.30
2023-01-19T06:26:16.173Z,73.30
2023-01-19T06:28:42.993Z,73.30
2023-01-19T06:31:09.871Z,73.20
2023-01-19T06:33:36.721Z,73.20
2023-01-19T06:36:03.728Z,73.20
2023-01-19T06:38:30.449Z,73.00
2023-01-19T06:40:58.829Z,73.00
2023-01-19T06:43:26.763Z,72.70
2023-01-19T06:45:53.791Z,73.60
2023-01-19T06:48:20.986Z,72.80
2023-01-19T06:50:48.860Z,72.90
2023-01-19T06:53:16.733Z,72.90
2023-01-19T06:55:44.094Z,73.00
2023-01-19T06:58:11.178Z,73.00
2023-01-19T07:00:38.403Z,73.00
2023-01-19T07:03:08.838Z,72.80
2023-01-19T07:05:38.647Z,72.70
2023-01-19T07:08:05.595Z,72.60
2023-01-19T07:11:26.446Z,72.40
2023-01-19T07:13:19.179Z,72.20
2023-01-19T07:15:46.130Z,72.20
2023-01-19T07:18:12.858Z,72.20
2023-01-19T07:20:39.676Z,72.30
2023-01-19T07:23:06.424Z,72.50
2023-01-19T07:25:33.203Z,72.70
2023-01-19T07:28:00.106Z,72.80
2023-01-19T07:30:27.452Z,72.80
2023-01-19T07:32:58.465Z,72.80
2023-01-19T07:35:26.049Z,73.00
2023-01-19T07:37:52.939Z,73.10
2023-01-19T07:40:19.921Z,73.30
2023-01-19T07:42:48.765Z,73.40
2023-01-19T07:45:22.958Z,73.50
2023-01-19T07:47:50.060Z,73.50
2023-01-19T07:50:18.118Z,73.40
2023-01-19T07:52:45.532Z,73.40
2023-01-19T07:55:12.389Z,73.40
2023-01-19T07:57:39.155Z,73.50
2023-01-19T08:00:06.576Z,73.50
2023-01-19T08:02:39.451Z,73.50
2023-01-19T08:05:06.654Z,73.50
2023-01-19T08:07:34.461Z,73.60
2023-01-19T08:10:01.220Z,73.60
2023-01-19T08:12:28.035Z,74.40
2023-01-19T08:14:54.815Z,73.50
2023-01-19T08:17:21.622Z,73.50
2023-01-19T08:19:48.487Z,73.50
2023-01-19T08:22:15.186Z,73.30
2023-01-19T08:24:42.020Z,73.20
2023-01-19T08:27:09.981Z,72.80
2023-01-19T08:29:37.349Z,72.70
2023-01-19T08:32:04.811Z,72.40
2023-01-19T08:34:31.950Z,72.40
2023-01-19T08:36:59.678Z,72.40
2023-01-19T08:39:27.315Z,72.20
2023-01-19T08:41:54.901Z,72.20
2023-01-19T08:44:22.040Z,72.30
2023-01-19T08:46:48.806Z,72.30
2023-01-19T08:49:15.942Z,72.40
2023-01-19T08:51:45.825Z,72.20
2023-01-19T08:54:13.172Z,71.70
2023-01-19T08:56:39.907Z,71.50
2023-01-19T08:59:10.341Z,71.20
2023-01-19T09:01:38.141Z,71.00
2023-01-19T09:04:05.418Z,70.90
2023-01-19T09:06:32.862Z,70.80
2023-01-19T09:09:00.170Z,71.00
2023-01-19T09:11:27.554Z,70.80
2023-01-19T09:13:54.406Z,70.80
2023-01-19T09:16:21.579Z,70.80
2023-01-19T09:18:48.366Z,70.80
2023-01-19T09:21:16.149Z,70.80
2023-01-19T09:23:42.965Z,71.30
2023-01-19T09:26:10.306Z,71.70
2023-01-19T09:28:38.149Z,71.20
2023-01-19T09:31:07.266Z,70.60
2023-01-19T09:33:34.764Z,70.10
2023-01-19T09:36:02.251Z,70.90
2023-01-19T09:38:32.604Z,71.50
2023-01-19T09:41:00.819Z,71.60
2023-01-19T09:43:41.365Z,71.70
2023-01-19T09:46:27.636Z,70.90
2023-01-19T09:48:58.168Z,70.20
2023-01-19T09:51:28.438Z,69.50
2023-01-19T09:54:16.223Z,68.70
2023-01-19T09:56:44.380Z,68.10
2023-01-19T09:59:31.124Z,67.70
2023-01-19T10:02:35.478Z,67.30
2023-01-19T10:05:24.565Z,67.00
2023-01-19T10:07:54.523Z,66.10
2023-01-19T10:10:24.801Z,65.40
2023-01-19T10:13:16.988Z,65.30
2023-01-19T10:16:19.063Z,63.70
2023-01-19T10:18:51.900Z,63.10
2023-01-19T10:21:28.291Z,63.60
2023-01-19T10:24:21.026Z,62.70
2023-01-19T10:26:52.457Z,61.80
2023-01-19T10:29:29.658Z,61.30
2023-01-19T10:32:18.062Z,61.10
2023-01-19T10:34:44.878Z,61.80
2023-01-19T10:37:17.806Z,62.00
2023-01-19T10:39:46.180Z,63.10
2023-01-19T10:42:16.114Z,61.70
2023-01-19T10:44:45.229Z,62.00
2023-01-19T10:47:20.739Z,62.10
2023-01-19T10:49:48.595Z,62.20
2023-01-19T10:52:35.703Z,62.60
2023-01-19T10:55:04.445Z,62.50
2023-01-19T10:57:38.408Z,62.70
2023-01-19T11:00:14.032Z,62.70
2023-01-19T11:02:50.308Z,63.20
2023-01-19T11:05:35.615Z,63.00
2023-01-19T11:08:33.573Z,62.70
2023-01-19T11:11:04.463Z,63.10
2023-01-19T11:13:32.347Z,63.20
2023-01-19T11:16:25.221Z,63.20
2023-01-19T11:18:53.359Z,62.90
2023-01-19T11:21:25.959Z,62.50
2023-01-19T11:23:56.474Z,62.30
2023-01-19T11:26:32.609Z,63.00
2023-01-19T11:29:02.336Z,62.50
2023-01-19T11:31:29.134Z,61.60
2023-01-19T11:33:59.695Z,61.60
2023-01-19T11:36:36.911Z,61.90
2023-01-19T11:39:21.353Z,61.10
2023-01-19T11:41:51.830Z,60.40
2023-01-19T11:44:32.599Z,60.90
2023-01-19T11:47:28.225Z,60.00
2023-01-19T11:50:33.240Z,59.50
2023-01-19T11:53:25.507Z,58.20
2023-01-19T11:56:06.140Z,58.50
2023-01-19T11:58:39.080Z,58.60
2023-01-19T12:01:21.232Z,57.80
2023-01-19T12:04:04.461Z,58.00
2023-01-19T12:06:35.342Z,57.70
2023-01-19T12:09:12.754Z,57.70
2023-01-19T12:11:48.846Z,57.30
2023-01-19T12:14:54.700Z,57.00
2023-01-19T12:17:28.161Z,57.30
2023-01-19T12:20:03.790Z,56.50
2023-01-19T12:22:41.005Z,57.10
2023-01-19T12:25:18.257Z,56.90
2023-01-19T12:27:46.696Z,56.60
2023-01-19T12:30:21.096Z,55.80
2023-01-19T12:32:48.621Z,55.60
2023-01-19T12:35:52.924Z,55.60
2023-01-19T12:38:40.853Z,56.90
2023-01-19T12:41:28.623Z,57.00
2023-01-19T12:44:19.507Z,57.20
2023-01-19T12:47:03.291Z,56.60
2023-01-19T12:49:37.777Z,56.70
2023-01-19T12:52:34.072Z,56.10
2023-01-19T12:55:14.726Z,55.80
2023-01-19T12:57:50.594Z,56.70
2023-01-19T13:00:21.014Z,55.10
2023-01-19T13:02:59.205Z,54.80
2023-01-19T13:05:33.241Z,54.60
2023-01-19T13:08:04.810Z,54.70
2023-01-19T13:11:00.374Z,55.30
2023-01-19T13:13:32.437Z,54.60
2023-01-19T13:16:18.122Z,55.00
2023-01-19T13:19:06.796Z,55.20
2023-01-19T13:21:33.522Z,55.40
2023-01-19T13:24:02.830Z,55.90
2023-01-19T13:26:39.834Z,56.40
2023-01-19T13:29:40.491Z,54.60
2023-01-19T13:32:15.985Z,54.10
2023-01-19T13:34:51.629Z,54.60
2023-01-19T13:37:21.688Z,54.80
2023-01-19T13:39:51.910Z,53.80
2023-01-19T13:42:35.521Z,53.60
2023-01-19T13:45:37.036Z,54.50
2023-01-19T13:48:07.781Z,54.20
2023-01-19T13:50:39.267Z,54.60
2023-01-19T13:53:20.735Z,54.80
2023-01-19T13:56:08.811Z,55.20
2023-01-19T13:58:35.729Z,55.60
2023-01-19T14:01:02.483Z,55.60
2023-01-19T14:03:29.316Z,56.20
2023-01-19T14:05:56.218Z,54.50
2023-01-19T14:08:25.386Z,54.30
2023-01-19T14:10:52.175Z,54.70
2023-01-19T14:13:29.738Z,54.70
2023-01-19T14:15:59.733Z,54.60
2023-01-19T14:18:31.535Z,54.40
2023-01-19T14:21:07.496Z,54.40
2023-01-19T14:23:48.262Z,54.60
2023-01-19T14:26:42.930Z,55.50
2023-01-19T14:29:32.784Z,54.60
2023-01-19T14:32:19.382Z,54.70
2023-01-19T14:34:50.183Z,56.00
2023-01-19T14:37:21.276Z,55.80
2023-01-19T14:40:19.476Z,55.90
2023-01-19T14:43:07.835Z,56.00
2023-01-19T14:45:35.804Z,56.30
2023-01-19T14:48:06.141Z,56.30
2023-01-19T14:50:36.289Z,56.60
2023-01-19T14:53:14.600Z,56.40
2023-01-19T14:55:47.251Z,56.40
2023-01-19T14:58:16.601Z,56.70
2023-01-19T15:00:44.967Z,56.80
2023-01-19T15:03:12.124Z,56.80
2023-01-19T15:05:42.138Z,57.00
2023-01-19T15:08:14.968Z,56.10
2023-01-19T15:10:42.438Z,55.90
2023-01-19T15:13:19.098Z,55.40
2023-01-19T15:15:46.116Z,56.00
2023-01-19T15:18:20.875Z,55.60
2023-01-19T15:20:47.630Z,56.20
2023-01-19T15:23:14.386Z,55.80
2023-01-19T15:25:41.215Z,56.20
2023-01-19T15:28:13.227Z,56.00
2023-01-19T15:30:40.391Z,56.10
2023-01-19T15:33:09.401Z,56.40
2023-01-19T15:35:36.235Z,56.20
2023-01-19T15:38:02.993Z,56.30
2023-01-19T15:40:29.878Z,56.20
2023-01-19T15:42:56.658Z,56.90
2023-01-19T15:45:35.620Z,56.70
2023-01-19T15:48:05.764Z,56.80
2023-01-19T15:50:33.456Z,56.90
2023-01-19T15:53:00.212Z,57.40
2023-01-19T15:55:27.238Z,57.30
2023-01-19T15:57:55.069Z,57.40
2023-01-19T16:00:21.897Z,58.20
2023-01-19T16:02:50.257Z,57.90
2023-01-19T16:05:17.071Z,58.80
2023-01-19T16:07:43.945Z,58.50
2023-01-19T16:10:12.722Z,58.60
2023-01-19T16:12:39.664Z,58.30
2023-01-19T16:15:07.207Z,58.00
2023-01-19T16:17:34.183Z,57.70
2023-01-19T16:20:00.967Z,58.40
2023-01-19T16:22:27.686Z,59.00
2023-01-19T16:24:56.372Z,59.00
2023-01-19T16:27:24.323Z,58.90
2023-01-19T16:29:51.214Z,59.00
2023-01-19T16:32:18.844Z,59.50
2023-01-19T16:34:45.693Z,59.20
2023-01-19T16:37:12.777Z,59.20
2023-01-19T16:39:39.576Z,59.60
2023-01-19T16:42:06.380Z,59.80
2023-01-19T16:44:33.148Z,60.10
2023-01-19T16:46:59.884Z,59.80
2023-01-19T16:49:28.505Z,60.00
2023-01-19T16:51:55.988Z,60.10
2023-01-19T16:54:25.912Z,60.40
2023-01-19T16:56:53.871Z,60.50
2023-01-19T16:59:22.321Z,60.80
2023-01-19T17:01:53.118Z,60.60
2023-01-19T17:04:21.637Z,60.30
2023-01-19T17:06:48.492Z,60.10
2023-01-19T17:09:15.328Z,60.00
2023-01-19T17:11:42.713Z,60.20
2023-01-19T17:14:15.385Z,60.50
2023-01-19T17:16:59.703Z,61.10
2023-01-19T17:19:29.072Z,61.60
2023-01-19T17:21:55.849Z,61.80
2023-01-19T17:24:22.648Z,61.70
2023-01-19T17:26:49.456Z,61.50
2023-01-19T17:29:17.161Z,61.70
2023-01-19T17:31:44.600Z,61.80
2023-01-19T17:34:11.573Z,61.70
2023-01-19T17:36:38.460Z,61.40
2023-01-19T17:39:07.880Z,61.70
2023-01-19T17:41:35.803Z,61.80
2023-01-19T17:44:04.357Z,61.90
2023-01-19T17:46:32.030Z,62.50
2023-01-19T17:49:04.107Z,62.10
2023-01-19T17:51:31.751Z,62.10
2023-01-19T17:53:59.102Z,62.00
2023-01-19T17:56:30.164Z,61.50
2023-01-19T17:58:57.806Z,62.30
2023-01-19T18:01:28.870Z,63.40
2023-01-19T18:03:56.333Z,62.80
2023-01-19T18:06:23.555Z,62.90
2023-01-19T18:08:50.543Z,63.00
2023-01-19T18:11:19.379Z,63.50
2023-01-19T18:13:48.286Z,64.70
2023-01-19T18:16:35.023Z,65.40
2023-01-19T18:19:01.867Z,65.70
2023-01-19T18:21:30.239Z,65.70
2023-01-19T18:24:02.339Z,65.70
2023-01-19T18:26:29.731Z,65.90
2023-01-19T18:28:57.464Z,65.80
2023-01-19T18:31:25.282Z,66.10
2023-01-19T18:33:52.673Z,66.10
2023-01-19T18:36:20.218Z,66.20
2023-01-19T18:38:47.661Z,65.80
2023-01-19T18:41:17.098Z,65.90
2023-01-19T18:43:44.153Z,65.60
2023-01-19T18:46:11.325Z,65.30
2023-01-19T18:48:39.394Z,65.00
2023-01-19T18:51:12.002Z,64.90
2023-01-19T18:53:39.245Z,64.90
2023-01-19T18:56:08.915Z,65.20
2023-01-19T18:58:38.213Z,65.30
2023-01-19T19:01:16.262Z,65.50
2023-01-19T19:03:43.213Z,65.90
2023-01-19T19:06:09.992Z,66.20
2023-01-19T19:08:36.779Z,66.50
2023-01-19T19:11:07.964Z,66.70
2023-01-19T19:13:34.903Z,67.00
2023-01-19T19:16:12.039Z,67.40
2023-01-19T19:18:39.391Z,68.30
2023-01-19T19:21:08.890Z,69.00
2023-01-19T19:23:38.692Z,69.40
2023-01-19T19:26:10.709Z,69.80
2023-01-19T19:28:39.527Z,70.00
2023-01-19T19:31:14.930Z,70.10
2023-01-19T19:33:41.923Z,70.20
2023-01-19T19:36:10.092Z,70.20
2023-01-19T19:38:36.976Z,70.20
2023-01-19T19:41:08.125Z,70.20
2023-01-19T19:43:35.336Z,70.20
2023-01-19T19:46:05.791Z,69.90
2023-01-19T19:48:33.779Z,69.70
2023-01-19T19:51:18.852Z,69.50
2023-01-19T19:53:51.545Z,69.40
2023-01-19T19:56:21.221Z,69.30
2023-01-19T19:58:48.980Z,69.20
2023-01-19T20:01:21.385Z,69.10
2023-01-19T20:03:49.881Z,69.30
2023-01-19T20:06:23.715Z,68.80
2023-01-19T20:08:52.944Z,68.60
2023-01-19T20:11:28.294Z,68.60
2023-01-19T20:13:55.558Z,69.40
2023-01-19T20:16:23.731Z,68.60
2023-01-19T20:18:53.900Z,68.70
2023-01-19T20:21:24.098Z,68.80
2023-01-19T20:23:51.163Z,68.90
2023-01-19T20:26:20.687Z,69.20
2023-01-19T20:28:47.869Z,69.40
2023-01-19T20:31:19.330Z,69.50
2023-01-19T20:33:51.583Z,69.60
2023-01-19T20:36:19.390Z,69.60
2023-01-19T20:38:46.166Z,69.40
2023-01-19T20:41:13.515Z,69.50
2023-01-19T20:43:40.556Z,69.40
2023-01-19T20:46:07.646Z,69.60
2023-01-19T20:48:34.638Z,69.80
2023-01-19T20:51:04.044Z,70.00
2023-01-19T20:53:31.415Z,70.00
2023-01-19T20:55:58.347Z,70.10
2023-01-19T20:58:25.051Z,70.20
2023-01-19T21:00:52.458Z,70.20
2023-01-19T21:03:19.246Z,70.30
2023-01-19T21:05:48.292Z,70.30
2023-01-19T21:08:16.470Z,70.10
2023-01-19T21:10:45.414Z,70.20
2023-01-19T21:13:12.175Z,70.10
2023-01-19T21:15:38.946Z,70.20
2023-01-19T21:18:05.832Z,70.30
2023-01-19T21:20:33.096Z,70.30
2023-01-19T21:22:59.971Z,70.40
2023-01-19T21:25:26.743Z,70.40
2023-01-19T21:27:53.509Z,70.30
2023-01-19T21:30:20.377Z,70.20
2023-01-19T21:32:47.202Z,70.20
2023-01-19T21:35:14.429Z,70.40
2023-01-19T21:37:41.497Z,70.30
2023-01-19T21:40:09.058Z,70.20
2023-01-19T21:42:35.817Z,70.20
2023-01-19T21:45:02.588Z,70.00
2023-01-19T21:47:29.310Z,69.80
2023-01-19T21:49:56.082Z,69.90
2023-01-19T21:52:23.120Z,70.10
2023-01-19T21:54:49.869Z,70.20
2023-01-19T21:57:19.585Z,70.40
2023-01-19T21:59:46.459Z,70.40
2023-01-19T22:02:13.635Z,70.50
2023-01-19T22:04:40.771Z,70.40
2023-01-19T22:07:07.615Z,70.50
2023-01-19T22:09:35.415Z,70.60
2023-01-19T22:12:02.684Z,70.70
2023-01-19T22:14:29.632Z,70.80
2023-01-19T22:16:56.866Z,70.90
2023-01-19T22:19:23.724Z,70.70
2023-01-19T22:21:50.470Z,70.60
2023-01-19T22:24:17.361Z,70.70
2023-01-19T22:26:44.149Z,70.70
2023-01-19T22:29:11.887Z,70.80
2023-01-19T22:31:39.448Z,70.80
2023-01-19T22:34:10.159Z,70.90
2023-01-19T22:36:37.989Z,71.10
2023-01-19T22:39:08.096Z,71.10
2023-01-19T22:41:37.789Z,71.20
2023-01-19T22:44:07.316Z,71.30
2023-01-19T22:46:36.334Z,71.20
2023-01-19T22:49:04.130Z,71.20
2023-01-19T22:51:32.337Z,71.30
2023-01-19T22:53:59.638Z,71.30
2023-01-19T22:56:28.402Z,71.40
2023-01-19T22:58:55.639Z,71.80
2023-01-19T23:01:34.147Z,72.10
2023-01-19T23:04:02.292Z,72.40
2023-01-19T23:06:31.369Z,72.50
2023-01-19T23:09:00.844Z,72.60
2023-01-19T23:11:37.809Z,72.70
2023-01-19T23:14:07.237Z,72.80
2023-01-19T23:16:34.815Z,73.60
2023-01-19T23:19:01.886Z,72.70
2023-01-19T23:21:30.247Z,72.70
2023-01-19T23:23:59.021Z,73.40
2023-01-19T23:26:26.760Z,72.50
2023-01-19T23:28:56.268Z,72.50
2023-01-19T23:31:31.560Z,72.40
2023-01-19T23:34:01.669Z,72.10
2023-01-19T23:36:31.317Z,71.90
2023-01-19T23:39:00.614Z,71.70
2023-01-19T23:41:29.496Z,71.60
2023-01-19T23:43:56.396Z,71.60
2023-01-19T23:46:23.435Z,71.50
2023-01-19T23:48:50.390Z,71.80
2023-01-19T23:51:23.451Z,72.00
2023-01-19T23:53:51.035Z,72.40
2023-01-19T23:56:29.257Z,72.50
2023-01-19T23:59:07.891Z,72.50
